createdAt,value
2023-08-29T00:03:41.851Z,18.79
2023-08-29T00:08:49.568Z,18.75
2023-08-29T00:13:57.476Z,18.75
2023-08-29T00:19:04.071Z,18.75
2023-08-29T00:24:12.125Z,18.76
2023-08-29T00:29:18.693Z,18.75
2023-08-29T00:34:25.032Z,18.70
2023-08-29T00:39:32.866Z,18.70
2023-08-29T00:44:40.339Z,18.69
2023-08-29T00:49:46.642Z,18.64
2023-08-29T00:54:55.381Z,18.63
2023-08-29T01:00:02.016Z,18.63
2023-08-29T01:05:11.050Z,18.62
2023-08-29T01:10:21.348Z,18.57
2023-08-29T01:15:33.890Z,18.52
2023-08-29T01:20:41.462Z,18.46
2023-08-29T01:25:58.452Z,18.50
2023-08-29T01:31:08.522Z,18.52
2023-08-29T01:36:14.930Z,18.52
2023-08-29T01:41:21.065Z,18.51
2023-08-29T01:46:28.874Z,18.49
2023-08-29T01:51:35.364Z,18.40
2023-08-29T01:56:42.450Z,18.23
2023-08-29T02:01:50.431Z,18.26
2023-08-29T02:06:56.812Z,18.36
2023-08-29T02:12:03.782Z,18.45
2023-08-29T02:17:12.088Z,18.51
2023-08-29T02:22:18.648Z,18.60
2023-08-29T02:27:25.738Z,18.67
2023-08-29T02:32:36.023Z,18.71
2023-08-29T02:37:42.361Z,18.75
2023-08-29T02:42:48.576Z,18.75
2023-08-29T02:47:56.465Z,18.74
2023-08-29T02:53:03.518Z,18.75
2023-08-29T02:58:09.873Z,18.77
2023-08-29T03:03:19.664Z,18.76
2023-08-29T03:08:26.619Z,18.75
2023-08-29T03:13:33.241Z,18.74
2023-08-29T03:18:41.180Z,18.40
2023-08-29T03:23:47.593Z,18.32
2023-08-29T03:28:53.933Z,18.23
2023-08-29T03:34:01.714Z,18.27
2023-08-29T03:51:32.189Z,18.17
2023-08-29T03:56:41.103Z,17.87
2023-08-29T04:01:47.967Z,17.75
2023-08-29T04:06:56.640Z,17.63
2023-08-29T04:12:03.056Z,17.61
2023-08-29T04:17:09.326Z,17.57
2023-08-29T04:22:17.397Z,17.54
2023-08-29T04:27:23.863Z,17.66
2023-08-29T04:32:35.640Z,17.72
2023-08-29T04:37:47.170Z,17.69
2023-08-29T04:42:54.869Z,17.57
2023-08-29T04:48:01.523Z,17.48
2023-08-29T04:53:09.408Z,17.50
2023-08-29T04:58:16.086Z,17.49
2023-08-29T05:03:22.674Z,17.45
2023-08-29T05:08:36.310Z,17.48
2023-08-29T05:13:44.622Z,17.47
2023-08-29T05:18:51.336Z,17.42
2023-08-29T05:23:59.551Z,17.42
2023-08-29T05:29:06.167Z,17.40
2023-08-29T05:34:12.991Z,17.40
2023-08-29T05:39:21.421Z,17.40
2023-08-29T05:44:28.207Z,17.40
2023-08-29T05:49:35.750Z,17.45
2023-08-29T05:54:46.314Z,17.47
2023-08-29T05:59:55.306Z,17.52
2023-08-29T06:05:01.850Z,17.60
2023-08-29T06:10:12.357Z,17.65
2023-08-29T06:15:18.912Z,17.70
2023-08-29T06:20:25.567Z,17.77
2023-08-29T06:25:33.777Z,17.88
2023-08-29T06:30:40.339Z,18.02
2023-08-29T06:35:48.905Z,18.11
2023-08-29T06:40:59.166Z,18.22
2023-08-29T06:46:05.769Z,18.30
2023-08-29T06:51:15.171Z,18.40
2023-08-29T06:56:30.358Z,18.49
2023-08-29T07:01:38.740Z,18.58
2023-08-29T07:06:45.217Z,18.64
2023-08-29T07:11:53.380Z,18.72
2023-08-29T07:17:09.567Z,18.81
2023-08-29T07:22:24.055Z,18.83
2023-08-29T07:27:32.987Z,18.84
2023-08-29T07:32:39.619Z,18.93
2023-08-29T07:37:49.002Z,19.04
2023-08-29T07:42:56.978Z,19.16
2023-08-29T07:48:04.364Z,19.23
2023-08-29T07:53:11.302Z,19.31
2023-08-29T07:58:21.446Z,19.39
2023-08-29T08:03:28.254Z,19.49
2023-08-29T08:08:34.761Z,19.61
2023-08-29T08:13:42.676Z,19.71
2023-08-29T08:18:49.108Z,19.85
2023-08-29T08:23:59.449Z,20.01
2023-08-29T08:29:07.519Z,20.09
2023-08-29T08:34:13.887Z,20.17
2023-08-29T08:39:20.662Z,20.19
2023-08-29T08:44:29.035Z,20.28
2023-08-29T08:49:35.926Z,20.36
2023-08-29T08:54:43.416Z,20.44
2023-08-29T08:59:51.076Z,20.55
2023-08-29T09:04:57.460Z,20.62
2023-08-29T09:10:12.740Z,20.72
2023-08-29T09:15:21.582Z,20.77
2023-08-29T09:20:32.661Z,20.79
2023-08-29T09:25:39.008Z,20.85
2023-08-29T09:30:46.923Z,20.93
2023-08-29T09:35:53.585Z,20.99
2023-08-29T09:40:59.999Z,21.05
2023-08-29T09:46:08.922Z,21.01
2023-08-29T09:51:15.886Z,21.07
2023-08-29T09:56:26.051Z,21.12
2023-08-29T10:01:35.219Z,21.17
2023-08-29T10:06:43.944Z,21.22
2023-08-29T10:11:54.639Z,21.26
2023-08-29T10:17:08.481Z,21.38
2023-08-29T10:22:19.162Z,21.39
2023-08-29T10:27:25.582Z,21.46
2023-08-29T10:32:35.972Z,21.52
2023-08-29T10:37:42.760Z,21.62
2023-08-29T10:42:56.071Z,21.68
2023-08-29T10:48:04.435Z,21.76
2023-08-29T10:53:21.158Z,21.86
2023-08-29T10:58:38.227Z,21.93
2023-08-29T11:03:51.580Z,21.95
2023-08-29T11:09:22.450Z,22.00
2023-08-29T11:14:49.291Z,22.02
2023-08-29T11:19:58.985Z,22.06
2023-08-29T11:25:07.610Z,22.15
2023-08-29T11:30:31.297Z,22.34
2023-08-29T11:35:46.492Z,22.35
2023-08-29T11:41:00.968Z,22.41
2023-08-29T11:46:20.144Z,22.42
2023-08-29T11:51:28.566Z,22.47
2023-08-29T11:56:35.668Z,22.50
2023-08-29T12:01:42.410Z,22.51
2023-08-29T12:06:50.438Z,22.53
2023-08-29T12:11:57.244Z,22.53
2023-08-29T12:17:04.858Z,22.53
2023-08-29T12:22:12.638Z,22.52
2023-08-29T12:27:19.067Z,22.50
2023-08-29T12:32:29.301Z,22.47
2023-08-29T12:37:38.858Z,22.46
2023-08-29T12:42:46.552Z,22.42
2023-08-29T12:47:54.088Z,22.37
2023-08-29T12:53:02.042Z,22.31
2023-08-29T12:58:09.053Z,22.26
2023-08-29T13:03:16.189Z,22.22
2023-08-29T13:08:24.829Z,22.19
2023-08-29T13:13:31.187Z,22.17
2023-08-29T13:18:38.729Z,22.10
2023-08-29T13:23:47.166Z,22.11
2023-08-29T13:28:54.352Z,22.11
2023-08-29T13:34:00.913Z,22.17
2023-08-29T13:39:09.367Z,22.18
2023-08-29T13:44:16.178Z,22.17
2023-08-29T13:49:23.329Z,22.15
2023-08-29T13:54:32.204Z,22.15
2023-08-29T13:59:39.056Z,22.20
2023-08-29T14:04:46.325Z,22.29
2023-08-29T14:09:55.151Z,22.32
2023-08-29T14:15:02.994Z,22.32
2023-08-29T14:20:13.235Z,22.31
2023-08-29T14:25:21.988Z,22.26
2023-08-29T14:30:29.111Z,22.29
2023-08-29T14:35:36.649Z,22.29
2023-08-29T14:40:45.907Z,22.36
2023-08-29T14:45:58.862Z,22.31
2023-08-29T14:51:06.646Z,22.31
2023-08-29T14:56:17.047Z,22.31
2023-08-29T15:01:25.594Z,22.33
2023-08-29T15:06:34.598Z,22.35
2023-08-29T15:11:44.599Z,22.35
2023-08-29T15:16:52.324Z,22.32
2023-08-29T15:22:00.061Z,22.30
2023-08-29T15:27:10.163Z,22.29
2023-08-29T15:32:17.146Z,22.26
2023-08-29T15:37:25.707Z,22.25
2023-08-29T15:42:36.063Z,22.24
2023-08-29T15:47:45.361Z,22.19
2023-08-29T15:52:53.506Z,22.17
2023-08-29T15:58:03.007Z,22.13
2023-08-29T16:03:11.604Z,22.08
2023-08-29T16:08:19.879Z,22.09
2023-08-29T16:13:29.610Z,22.04
2023-08-29T16:18:38.090Z,21.98
2023-08-29T16:23:47.029Z,21.94
2023-08-29T16:28:57.139Z,21.92
2023-08-29T16:34:04.735Z,21.89
2023-08-29T16:39:12.946Z,21.86
2023-08-29T16:44:22.304Z,21.81
2023-08-29T16:49:31.148Z,21.79
2023-08-29T16:54:39.462Z,21.72
2023-08-29T16:59:59.107Z,21.63
2023-08-29T17:05:11.366Z,21.59
2023-08-29T17:10:19.118Z,21.45
2023-08-29T17:15:29.965Z,21.46
2023-08-29T17:20:39.016Z,21.43
2023-08-29T17:25:49.869Z,21.40
2023-08-29T17:31:00.194Z,21.38
2023-08-29T17:36:09.833Z,21.35
2023-08-29T17:41:20.345Z,21.31
2023-08-29T17:46:31.772Z,21.28
2023-08-29T17:51:40.422Z,21.22
2023-08-29T17:56:49.958Z,21.17
2023-08-29T18:02:00.757Z,20.95
2023-08-29T18:07:10.163Z,20.95
2023-08-29T18:12:18.531Z,20.93
2023-08-29T18:17:28.732Z,20.92
2023-08-29T18:22:37.683Z,20.88
2023-08-29T18:27:48.792Z,20.87
2023-08-29T18:33:01.049Z,20.81
2023-08-29T18:38:10.840Z,20.74
2023-08-29T18:43:22.026Z,20.68
2023-08-29T18:48:33.087Z,20.64
2023-08-29T18:53:42.567Z,20.59
2023-08-29T18:58:50.688Z,20.54
2023-08-29T19:04:00.739Z,20.50
2023-08-29T19:09:10.900Z,20.44
2023-08-29T19:14:23.904Z,20.41
2023-08-29T19:19:36.298Z,20.37
2023-08-29T19:24:45.940Z,20.29
2023-08-29T19:29:56.826Z,20.22
2023-08-29T19:35:08.312Z,20.22
2023-08-29T19:40:18.152Z,20.17
2023-08-29T19:45:28.178Z,20.13
2023-08-29T19:50:50.047Z,20.13
2023-08-29T19:55:59.991Z,20.05
2023-08-29T20:01:09.916Z,20.05
2023-08-29T20:06:23.091Z,19.99
2023-08-29T20:11:33.090Z,19.99
2023-08-29T20:16:43.694Z,19.97
2023-08-29T20:21:55.695Z,19.89
2023-08-29T20:27:04.651Z,19.81
2023-08-29T20:32:13.526Z,19.71
2023-08-29T20:37:24.899Z,19.72
2023-08-29T20:42:33.649Z,19.58
2023-08-29T20:47:41.415Z,19.63
2023-08-29T20:52:50.707Z,19.68
2023-08-29T20:57:59.429Z,19.72
2023-08-29T21:03:07.316Z,19.73
2023-08-29T21:08:15.499Z,19.75
2023-08-29T21:13:22.848Z,19.66
2023-08-29T21:18:29.373Z,19.42
2023-08-29T21:23:37.257Z,19.41
2023-08-29T21:28:44.030Z,19.48
2023-08-29T21:33:50.488Z,19.52
2023-08-29T21:38:58.558Z,19.52
2023-08-29T21:44:05.096Z,19.51
2023-08-29T21:49:11.594Z,19.50
2023-08-29T21:54:19.615Z,19.49
2023-08-29T21:59:26.068Z,19.48
2023-08-29T22:04:32.510Z,19.43
2023-08-29T22:09:40.939Z,19.35
2023-08-29T22:14:47.387Z,19.32
2023-08-29T22:19:53.770Z,19.29
2023-08-29T22:25:02.084Z,19.14
2023-08-29T22:30:12.494Z,18.95
2023-08-29T22:35:18.913Z,19.00
2023-08-29T22:40:27.006Z,19.09
2023-08-29T22:45:33.913Z,19.17
2023-08-29T22:50:40.595Z,19.19
2023-08-29T22:55:48.868Z,19.20
2023-08-29T23:00:55.877Z,19.21
2023-08-29T23:06:02.741Z,19.21
2023-08-29T23:11:10.908Z,19.26
2023-08-29T23:16:17.851Z,19.16
2023-08-29T23:21:24.849Z,19.11
2023-08-29T23:26:32.738Z,19.10
2023-08-29T23:31:39.360Z,19.06
2023-08-29T23:36:46.146Z,19.07
2023-08-29T23:41:54.182Z,19.10
2023-08-29T23:47:01.054Z,19.06
2023-08-29T23:52:07.988Z,19.04
2023-08-29T23:57:15.972Z,19.03
